sensor_id;sensor_type;location;lat;lon;timestamp;pressure;altitude;pressure_sealevel;temperature;humidity
15444;BME280;7822;48.146;11.576;2022-09-17T00:01:08;94919.94;;;13.36;72.63
15444;BME280;7822;48.146;11.576;2022-09-17T00:03:36;94934.22;;;13.32;72.63
15444;BME280;7822;48.146;11.576;2022-09-17T00:06:06;94929.94;;;13.13;72.83
15444;BME280;7822;48.146;11.576;2022-09-17T00:08:35;94935.44;;;13.10;73.19
15444;BME280;7822;48.146;11.576;2022-09-17T00:11:07;94940.50;;;13.02;72.83
15444;BME280;7822;48.146;11.576;2022-09-17T00:13:35;94936.25;;;13.11;73.08
15444;BME280;7822;48.146;11.576;2022-09-17T00:16:03;94936.38;;;13.19;72.19
15444;BME280;7822;48.146;11.576;2022-09-17T00:18:31;94938.66;;;13.22;72.45
15444;BME280;7822;48.146;11.576;2022-09-17T00:21:02;94935.09;;;13.23;71.75
15444;BME280;7822;48.146;11.576;2022-09-17T00:23:30;94931.16;;;13.19;71.78
15444;BME280;7822;48.146;11.576;2022-09-17T00:25:58;94933.75;;;13.19;72.36
15444;BME280;7822;48.146;11.576;2022-09-17T00:28:27;94933.53;;;13.12;71.78
15444;BME280;7822;48.146;11.576;2022-09-17T00:30:54;94923.72;;;13.24;71.97
15444;BME280;7822;48.146;11.576;2022-09-17T00:33:22;94933.00;;;13.26;71.19
15444;BME280;7822;48.146;11.576;2022-09-17T00:35:57;94930.16;;;13.20;71.21
15444;BME280;7822;48.146;11.576;2022-09-17T00:38:24;94942.09;;;13.22;70.96
15444;BME280;7822;48.146;11.576;2022-09-17T00:40:52;94941.03;;;13.15;71.58
15444;BME280;7822;48.146;11.576;2022-09-17T00:43:34;94943.31;;;13.28;70.68
15444;BME280;7822;48.146;11.576;2022-09-17T00:46:03;94946.47;;;13.22;70.17
15444;BME280;7822;48.146;11.576;2022-09-17T00:48:33;94953.06;;;13.26;70.67
15444;BME280;7822;48.146;11.576;2022-09-17T00:51:01;94942.72;;;13.34;69.57
15444;BME280;7822;48.146;11.576;2022-09-17T00:53:29;94950.72;;;13.23;69.71
15444;BME280;7822;48.146;11.576;2022-09-17T00:56:01;94942.53;;;13.18;70.75
15444;BME280;7822;48.146;11.576;2022-09-17T00:58:31;94947.84;;;13.26;70.41
15444;BME280;7822;48.146;11.576;2022-09-17T01:01:07;94945.09;;;13.27;69.80
15444;BME280;7822;48.146;11.576;2022-09-17T01:03:35;94948.63;;;13.26;69.51
15444;BME280;7822;48.146;11.576;2022-09-17T01:06:11;94947.84;;;13.26;69.78
15444;BME280;7822;48.146;11.576;2022-09-17T01:08:53;94955.13;;;13.22;70.01
15444;BME280;7822;48.146;11.576;2022-09-17T01:11:42;94959.13;;;13.17;69.81
15444;BME280;7822;48.146;11.576;2022-09-17T01:14:22;94952.28;;;13.16;69.50
15444;BME280;7822;48.146;11.576;2022-09-17T01:16:58;94950.72;;;13.23;69.71
15444;BME280;7822;48.146;11.576;2022-09-17T01:19:48;94946.91;;;13.17;68.88
15444;BME280;7822;48.146;11.576;2022-09-17T01:22:30;94951.00;;;13.20;69.33
15444;BME280;7822;48.146;11.576;2022-09-17T01:25:19;94960.22;;;13.14;69.47
15444;BME280;7822;48.146;11.576;2022-09-17T01:31:07;94951.41;;;12.88;70.29
15444;BME280;7822;48.146;11.576;2022-09-17T01:33:43;94942.06;;;12.95;nan
15444;BME280;7822;48.146;11.576;2022-09-17T01:36:21;94950.88;;;13.21;69.53
15444;BME280;7822;48.146;11.576;2022-09-17T01:38:59;94950.28;;;13.27;68.92
15444;BME280;7822;48.146;11.576;2022-09-17T01:41:34;94945.91;;;13.28;69.18
15444;BME280;7822;48.146;11.576;2022-09-17T01:44:10;94955.97;;;13.13;69.25
15444;BME280;7822;48.146;11.576;2022-09-17T01:46:42;94940.75;;;13.18;69.21
15444;BME280;7822;48.146;11.576;2022-09-17T01:49:11;94948.13;;;13.23;68.97
15444;BME280;7822;48.146;11.576;2022-09-17T01:51:45;94947.06;;;13.16;69.58
15444;BME280;7822;48.146;11.576;2022-09-17T01:54:18;94945.88;;;13.10;69.93
15444;BME280;7822;48.146;11.576;2022-09-17T01:56:53;94938.72;;;13.03;70.09
15444;BME280;7822;48.146;11.576;2022-09-17T01:59:29;94936.78;;;13.14;69.79
15444;BME280;7822;48.146;11.576;2022-09-17T02:02:02;94942.88;;;13.05;70.26
15444;BME280;7822;48.146;11.576;2022-09-17T02:04:36;94938.28;;;13.17;69.18
15444;BME280;7822;48.146;11.576;2022-09-17T02:07:08;94935.38;;;13.20;68.36
15444;BME280;7822;48.146;11.576;2022-09-17T02:09:41;94935.97;;;13.14;68.01
15444;BME280;7822;48.146;11.576;2022-09-17T02:12:14;94944.66;;;13.05;68.28
15444;BME280;7822;48.146;11.576;2022-09-17T02:14:48;94943.69;;;12.96;68.05
15444;BME280;7822;48.146;11.576;2022-09-17T02:17:22;94940.28;;;12.96;68.08
15444;BME280;7822;48.146;11.576;2022-09-17T02:19:53;94940.28;;;12.96;67.35
15444;BME280;7822;48.146;11.576;2022-09-17T02:22:25;94940.00;;;12.99;67.58
15444;BME280;7822;48.146;11.576;2022-09-17T02:25:01;94945.72;;;13.02;67.53
15444;BME280;7822;48.146;11.576;2022-09-17T02:27:38;94938.09;;;12.91;67.65
15444;BME280;7822;48.146;11.576;2022-09-17T02:30:10;94937.53;;;12.97;68.04
15444;BME280;7822;48.146;11.576;2022-09-17T02:32:39;94933.69;;;13.01;67.78
15444;BME280;7822;48.146;11.576;2022-09-17T02:35:08;94932.63;;;12.94;67.88
15444;BME280;7822;48.146;11.576;2022-09-17T02:37:36;94924.66;;;13.05;67.41
15444;BME280;7822;48.146;11.576;2022-09-17T02:40:05;94923.53;;;13.08;67.51
15444;BME280;7822;48.146;11.576;2022-09-17T02:42:45;94918.19;;;13.00;67.58
15444;BME280;7822;48.146;11.576;2022-09-17T02:45:24;94918.41;;;12.89;68.59
15444;BME280;7822;48.146;11.576;2022-09-17T02:48:09;94912.50;;;12.87;68.84
15444;BME280;7822;48.146;11.576;2022-09-17T02:53:34;94907.16;;;12.88;68.56
15444;BME280;7822;48.146;11.576;2022-09-17T02:56:11;94903.88;;;12.86;68.33
15444;BME280;7822;48.146;11.576;2022-09-17T02:58:46;94904.66;;;12.96;67.88
15444;BME280;7822;48.146;11.576;2022-09-17T03:01:24;94902.88;;;12.97;67.35
15444;BME280;7822;48.146;11.576;2022-09-17T03:03:58;94889.84;;;12.97;66.67
15444;BME280;7822;48.146;11.576;2022-09-17T03:06:29;94898.91;;;12.93;66.84
15444;BME280;7822;48.146;11.576;2022-09-17T03:08:57;94885.69;;;12.77;67.32
15444;BME280;7822;48.146;11.576;2022-09-17T03:11:25;94884.19;;;12.74;67.47
15444;BME280;7822;48.146;11.576;2022-09-17T03:13:53;94891.50;;;12.71;67.90
15444;BME280;7822;48.146;11.576;2022-09-17T03:16:20;94886.47;;;12.87;67.39
15444;BME280;7822;48.146;11.576;2022-09-17T03:18:48;94882.94;;;12.78;67.47
15444;BME280;7822;48.146;11.576;2022-09-17T03:21:17;94886.09;;;12.82;67.39
15444;BME280;7822;48.146;11.576;2022-09-17T03:23:45;94896.16;;;12.94;66.83
15444;BME280;7822;48.146;11.576;2022-09-17T03:26:13;94886.63;;;12.85;66.63
15444;BME280;7822;48.146;11.576;2022-09-17T03:28:41;94892.63;;;12.95;66.33
15444;BME280;7822;48.146;11.576;2022-09-17T03:31:08;94884.00;;;12.85;65.94
15444;BME280;7822;48.146;11.576;2022-09-17T03:33:36;94887.25;;;12.97;65.47
15444;BME280;7822;48.146;11.576;2022-09-17T03:36:04;94889.97;;;12.78;65.64
15444;BME280;7822;48.146;11.576;2022-09-17T03:38:36;94885.84;;;12.75;66.45
15444;BME280;7822;48.146;11.576;2022-09-17T03:41:05;94886.84;;;12.64;66.61
15444;BME280;7822;48.146;11.576;2022-09-17T03:43:33;94889.50;;;12.55;66.92
15444;BME280;7822;48.146;11.576;2022-09-17T03:46:01;94889.34;;;12.56;67.27
15444;BME280;7822;48.146;11.576;2022-09-17T03:48:29;94893.53;;;12.67;67.07
15444;BME280;7822;48.146;11.576;2022-09-17T03:51:00;94891.50;;;12.71;66.77
15444;BME280;7822;48.146;11.576;2022-09-17T03:53:28;94896.03;;;12.69;67.18
15444;BME280;7822;48.146;11.576;2022-09-17T03:55:58;94898.38;;;12.62;67.38
15444;BME280;7822;48.146;11.576;2022-09-17T03:58:26;94899.75;;;12.56;67.24
15444;BME280;7822;48.146;11.576;2022-09-17T04:00:56;94896.53;;;12.72;66.95
15444;BME280;7822;48.146;11.576;2022-09-17T04:03:24;94895.03;;;12.70;67.03
15444;BME280;7822;48.146;11.576;2022-09-17T04:05:52;94896.53;;;12.72;66.58
15444;BME280;7822;48.146;11.576;2022-09-17T04:08:20;94893.28;;;12.70;66.81
15444;BME280;7822;48.146;11.576;2022-09-17T04:10:47;94898.31;;;12.72;67.11
15444;BME280;7822;48.146;11.576;2022-09-17T04:13:17;94895.78;;;12.62;67.49
15444;BME280;7822;48.146;11.576;2022-09-17T04:15:45;94900.59;;;12.57;67.58
15444;BME280;7822;48.146;11.576;2022-09-17T04:18:14;94906.63;;;12.57;67.69
15444;BME280;7822;48.146;11.576;2022-09-17T04:20:41;94895.03;;;12.42;68.03
15444;BME280;7822;48.146;11.576;2022-09-17T04:23:10;94892.84;;;12.38;68.21
15444;BME280;7822;48.146;11.576;2022-09-17T04:25:38;94884.00;;;12.21;68.64
15444;BME280;7822;48.146;11.576;2022-09-17T04:28:06;94881.53;;;12.20;69.46
15444;BME280;7822;48.146;11.576;2022-09-17T04:30:35;94876.69;;;12.34;68.76
15444;BME280;7822;48.146;11.576;2022-09-17T04:33:03;94874.66;;;12.38;68.75
15444;BME280;7822;48.146;11.576;2022-09-17T04:35:31;94893.28;;;12.33;69.00
15444;BME280;7822;48.146;11.576;2022-09-17T04:37:59;94895.16;;;12.41;68.62
15444;BME280;7822;48.146;11.576;2022-09-17T04:40:27;94904.22;;;12.27;69.42
15444;BME280;7822;48.146;11.576;2022-09-17T04:42:55;94910.34;;;12.36;69.13
15444;BME280;7822;48.146;11.576;2022-09-17T04:45:25;94919.41;;;12.32;69.09
15444;BME280;7822;48.146;11.576;2022-09-17T04:47:54;94923.34;;;12.36;69.04
15444;BME280;7822;48.146;11.576;2022-09-17T04:50:22;94918.59;;;12.31;69.31
15444;BME280;7822;48.146;11.576;2022-09-17T04:52:50;94937.75;;;12.30;69.38
15444;BME280;7822;48.146;11.576;2022-09-17T04:55:18;94954.59;;;12.26;69.36
15444;BME280;7822;48.146;11.576;2022-09-17T04:57:46;94962.94;;;12.30;69.57
15444;BME280;7822;48.146;11.576;2022-09-17T05:00:15;94973.22;;;12.31;69.05
15444;BME280;7822;48.146;11.576;2022-09-17T05:02:45;94977.31;;;12.34;69.06
15444;BME280;7822;48.146;11.576;2022-09-17T05:05:16;94988.09;;;12.48;68.08
15444;BME280;7822;48.146;11.576;2022-09-17T05:07:44;94995.09;;;12.48;68.25
15444;BME280;7822;48.146;11.576;2022-09-17T05:10:14;94999.75;;;12.44;67.87
15444;BME280;7822;48.146;11.576;2022-09-17T05:12:46;95000.19;;;12.30;68.11
15444;BME280;7822;48.146;11.576;2022-09-17T05:15:14;95002.63;;;12.32;68.56
15444;BME280;7822;48.146;11.576;2022-09-17T05:17:42;94997.44;;;12.32;68.47
15444;BME280;7822;48.146;11.576;2022-09-17T05:20:10;95011.66;;;12.18;68.66
15444;BME280;7822;48.146;11.576;2022-09-17T05:22:43;95032.91;;;12.14;68.91
15444;BME280;7822;48.146;11.576;2022-09-17T05:25:11;95033.03;;;12.12;69.14
15444;BME280;7822;48.146;11.576;2022-09-17T05:27:40;95034.81;;;12.12;68.73
15444;BME280;7822;48.146;11.576;2022-09-17T05:30:09;95040.28;;;12.09;68.79
15444;BME280;7822;48.146;11.576;2022-09-17T05:32:37;95049.31;;;12.14;68.59
15444;BME280;7822;48.146;11.576;2022-09-17T05:35:07;95049.19;;;12.06;68.77
15444;BME280;7822;48.146;11.576;2022-09-17T05:37:35;95061.06;;;11.99;68.70
15444;BME280;7822;48.146;11.576;2022-09-17T05:40:07;95062.44;;;11.94;68.54
15444;BME280;7822;48.146;11.576;2022-09-17T05:42:34;95061.91;;;12.00;69.08
15444;BME280;7822;48.146;11.576;2022-09-17T05:45:03;95060.13;;;12.10;68.04
15444;BME280;7822;48.146;11.576;2022-09-17T05:47:30;95060.53;;;12.05;68.24
15444;BME280;7822;48.146;11.576;2022-09-17T05:50:00;95067.13;;;12.09;68.00
15444;BME280;7822;48.146;11.576;2022-09-17T05:52:28;95064.06;;;11.95;68.12
15444;BME280;7822;48.146;11.576;2022-09-17T05:54:55;95071.03;;;11.94;68.63
15444;BME280;7822;48.146;11.576;2022-09-17T05:57:27;95071.63;;;11.98;68.29
15444;BME280;7822;48.146;11.576;2022-09-17T05:59:55;95066.41;;;11.98;68.04
15444;BME280;7822;48.146;11.576;2022-09-17T06:02:22;95066.00;;;12.02;68.22
15444;BME280;7822;48.146;11.576;2022-09-17T06:04:50;95072.44;;;12.08;67.37
15444;BME280;7822;48.146;11.576;2022-09-17T06:07:18;95067.22;;;11.88;67.81
15444;BME280;7822;48.146;11.576;2022-09-17T06:09:45;95058.16;;;11.83;67.78
15444;BME280;7822;48.146;11.576;2022-09-17T06:12:13;95064.78;;;11.87;68.10
15444;BME280;7822;48.146;11.576;2022-09-17T06:14:42;95058.75;;;11.86;68.02
15444;BME280;7822;48.146;11.576;2022-09-17T06:17:10;95051.47;;;11.90;67.77
15444;BME280;7822;48.146;11.576;2022-09-17T06:19:37;95059.56;;;11.87;67.93
15444;BME280;7822;48.146;11.576;2022-09-17T06:22:05;95064.09;;;11.85;68.18
15444;BME280;7822;48.146;11.576;2022-09-17T06:24:32;95060.50;;;11.86;68.05
15444;BME280;7822;48.146;11.576;2022-09-17T06:27:00;95065.88;;;12.04;67.87
15444;BME280;7822;48.146;11.576;2022-09-17T06:29:28;95066.56;;;11.96;67.82
15444;BME280;7822;48.146;11.576;2022-09-17T06:31:57;95074.34;;;12.06;67.67
15444;BME280;7822;48.146;11.576;2022-09-17T06:34:26;95067.78;;;12.02;67.70
15444;BME280;7822;48.146;11.576;2022-09-17T06:36:53;95062.88;;;12.18;67.31
15444;BME280;7822;48.146;11.576;2022-09-17T06:39:21;95066.00;;;12.12;67.26
15444;BME280;7822;48.146;11.576;2022-09-17T06:41:49;95065.22;;;12.11;67.85
15444;BME280;7822;48.146;11.576;2022-09-17T06:44:17;95062.06;;;12.17;66.59
15444;BME280;7822;48.146;11.576;2022-09-17T06:46:47;95062.44;;;12.03;66.80
15444;BME280;7822;48.146;11.576;2022-09-17T06:49:17;95059.84;;;12.03;66.83
15444;BME280;7822;48.146;11.576;2022-09-17T06:51:45;95060.13;;;12.00;67.48
15444;BME280;7822;48.146;11.576;2022-09-17T06:54:13;95063.00;;;11.97;67.46
15444;BME280;7822;48.146;11.576;2022-09-17T06:56:41;95060.66;;;11.84;67.87
15444;BME280;7822;48.146;11.576;2022-09-17T06:59:08;95059.50;;;11.68;68.63
15444;BME280;7822;48.146;11.576;2022-09-17T07:01:36;95055.16;;;11.68;68.31
15444;BME280;7822;48.146;11.576;2022-09-17T07:04:04;95061.88;;;11.80;68.34
15444;BME280;7822;48.146;11.576;2022-09-17T07:06:34;95057.91;;;11.86;67.97
15444;BME280;7822;48.146;11.576;2022-09-17T07:09:02;95053.69;;;11.95;68.01
15444;BME280;7822;48.146;11.576;2022-09-17T07:11:36;95052.72;;;11.86;68.33
15444;BME280;7822;48.146;11.576;2022-09-17T07:14:04;95044.09;;;11.85;68.16
15444;BME280;7822;48.146;11.576;2022-09-17T07:16:32;95052.47;;;11.89;67.90
15444;BME280;7822;48.146;11.576;2022-09-17T07:19:02;95038.75;;;11.97;67.82
15444;BME280;7822;48.146;11.576;2022-09-17T07:21:30;95042.44;;;11.75;67.61
15444;BME280;7822;48.146;11.576;2022-09-17T07:24:00;95044.91;;;11.76;68.01
15444;BME280;7822;48.146;11.576;2022-09-17T07:26:27;95051.63;;;11.88;67.57
15444;BME280;7822;48.146;11.576;2022-09-17T07:28:55;95050.00;;;11.97;67.19
15444;BME280;7822;48.146;11.576;2022-09-17T07:31:23;95048.47;;;11.95;67.17
15444;BME280;7822;48.146;11.576;2022-09-17T07:33:50;95044.38;;;11.82;66.21
15444;BME280;7822;48.146;11.576;2022-09-17T07:36:18;95043.41;;;11.83;66.48
15444;BME280;7822;48.146;11.576;2022-09-17T07:38:45;95029.06;;;11.89;66.33
15444;BME280;7822;48.146;11.576;2022-09-17T07:41:16;95038.63;;;11.88;65.91
15444;BME280;7822;48.146;11.576;2022-09-17T07:43:44;95039.84;;;11.75;65.08
15444;BME280;7822;48.146;11.576;2022-09-17T07:46:13;95031.78;;;11.87;64.74
15444;BME280;7822;48.146;11.576;2022-09-17T07:48:42;95029.88;;;11.99;64.34
15444;BME280;7822;48.146;11.576;2022-09-17T07:51:14;95035.50;;;12.14;64.31
15444;BME280;7822;48.146;11.576;2022-09-17T07:53:42;95038.50;;;12.19;63.48
15444;BME280;7822;48.146;11.576;2022-09-17T07:56:10;95043.03;;;12.26;63.26
15444;BME280;7822;48.146;11.576;2022-09-17T07:58:39;95030.69;;;12.19;63.26
15444;BME280;7822;48.146;11.576;2022-09-17T08:01:08;95044.41;;;12.11;62.88
15444;BME280;7822;48.146;11.576;2022-09-17T08:03:37;95046.19;;;12.20;63.31
15444;BME280;7822;48.146;11.576;2022-09-17T08:06:07;95045.78;;;12.25;62.84
15444;BME280;7822;48.146;11.576;2022-09-17T08:08:35;95041.38;;;12.06;63.10
15444;BME280;7822;48.146;11.576;2022-09-17T08:11:05;95051.13;;;12.14;62.69
15444;BME280;7822;48.146;11.576;2022-09-17T08:13:34;95053.44;;;12.17;62.47
15444;BME280;7822;48.146;11.576;2022-09-17T08:16:05;95053.00;;;12.21;62.48
15444;BME280;7822;48.146;11.576;2022-09-17T08:18:33;95060.81;;;12.02;62.22
15444;BME280;7822;48.146;11.576;2022-09-17T08:21:03;95047.00;;;12.02;62.46
15444;BME280;7822;48.146;11.576;2022-09-17T08:23:33;95061.06;;;11.99;61.89
15444;BME280;7822;48.146;11.576;2022-09-17T08:26:02;95058.75;;;12.06;62.22
15444;BME280;7822;48.146;11.576;2022-09-17T08:28:30;95066.16;;;12.10;62.69
15444;BME280;7822;48.146;11.576;2022-09-17T08:30:59;95061.75;;;11.82;62.99
15444;BME280;7822;48.146;11.576;2022-09-17T08:33:31;95070.25;;;11.94;61.90
15444;BME280;7822;48.146;11.576;2022-09-17T08:35:59;95067.94;;;12.00;62.20
15444;BME280;7822;48.146;11.576;2022-09-17T08:38:28;95079.84;;;12.03;61.08
15444;BME280;7822;48.146;11.576;2022-09-17T08:41:14;95081.75;;;12.10;61.11
15444;BME280;7822;48.146;11.576;2022-09-17T08:43:48;95080.94;;;12.19;61.42
15444;BME280;7822;48.146;11.576;2022-09-17T08:46:17;95093.94;;;12.19;61.20
15444;BME280;7822;48.146;11.576;2022-09-17T08:48:52;95089.16;;;12.24;60.97
15444;BME280;7822;48.146;11.576;2022-09-17T08:56:26;95094.75;;;12.29;59.87
15444;BME280;7822;48.146;11.576;2022-09-17T08:59:05;95087.09;;;12.28;60.27
15444;BME280;7822;48.146;11.576;2022-09-17T09:01:41;95083.38;;;12.21;59.96
15444;BME280;7822;48.146;11.576;2022-09-17T09:04:41;95094.47;;;12.04;60.84
15444;BME280;7822;48.146;11.576;2022-09-17T09:07:16;95094.88;;;11.99;61.43
15444;BME280;7822;48.146;11.576;2022-09-17T09:09:48;95102.13;;;12.05;61.49
15444;BME280;7822;48.146;11.576;2022-09-17T09:12:21;95105.28;;;12.09;60.92
15444;BME280;7822;48.146;11.576;2022-09-17T09:17:35;95104.22;;;12.11;59.79
15444;BME280;7822;48.146;11.576;2022-09-17T09:20:04;95100.22;;;12.17;59.86
15444;BME280;7822;48.146;11.576;2022-09-17T09:22:42;95100.09;;;12.28;59.43
15444;BME280;7822;48.146;11.576;2022-09-17T09:25:18;95106.56;;;12.33;59.14
15444;BME280;7822;48.146;11.576;2022-09-17T09:27:58;95106.81;;;12.30;59.68
15444;BME280;7822;48.146;11.576;2022-09-17T09:30:34;95106.41;;;12.35;58.76
15444;BME280;7822;48.146;11.576;2022-09-17T09:33:11;95109.69;;;12.37;58.46
15444;BME280;7822;48.146;11.576;2022-09-17T09:35:41;95109.69;;;12.37;59.88
15444;BME280;7822;48.146;11.576;2022-09-17T09:38:17;95116.28;;;12.50;60.92
15444;BME280;7822;48.146;11.576;2022-09-17T09:40:52;95123.09;;;12.51;61.44
15444;BME280;7822;48.146;11.576;2022-09-17T09:43:22;95114.22;;;12.44;61.10
15444;BME280;7822;48.146;11.576;2022-09-17T09:46:26;95125.31;;;12.37;61.55
15444;BME280;7822;48.146;11.576;2022-09-17T09:49:07;95106.97;;;12.48;61.27
15444;BME280;7822;48.146;11.576;2022-09-17T09:51:46;95115.28;;;12.51;60.51
15444;BME280;7822;48.146;11.576;2022-09-17T09:54:26;95126.97;;;12.57;61.01
15444;BME280;7822;48.146;11.576;2022-09-17T09:56:59;95118.31;;;12.56;60.96
15444;BME280;7822;48.146;11.576;2022-09-17T09:59:31;95119.16;;;12.57;60.60
15444;BME280;7822;48.146;11.576;2022-09-17T10:01:59;95127.78;;;12.48;61.41
15444;BME280;7822;48.146;11.576;2022-09-17T10:04:28;95122.16;;;12.62;61.46
15444;BME280;7822;48.146;11.576;2022-09-17T10:07:00;95128.16;;;12.62;62.41
15444;BME280;7822;48.146;11.576;2022-09-17T10:09:29;95135.59;;;12.57;63.27
15444;BME280;7822;48.146;11.576;2022-09-17T10:12:00;95130.25;;;12.59;64.25
15444;BME280;7822;48.146;11.576;2022-09-17T10:14:29;95146.94;;;12.66;64.94
15444;BME280;7822;48.146;11.576;2022-09-17T10:17:11;95136.69;;;12.55;65.58
15444;BME280;7822;48.146;11.576;2022-09-17T10:19:43;95148.19;;;12.62;66.24
15444;BME280;7822;48.146;11.576;2022-09-17T10:22:22;95150.91;;;12.41;67.43
15444;BME280;7822;48.146;11.576;2022-09-17T10:24:52;95148.84;;;12.26;68.54
15444;BME280;7822;48.146;11.576;2022-09-17T10:27:21;95151.41;;;12.16;70.59
15444;BME280;7822;48.146;11.576;2022-09-17T10:29:55;95148.34;;;11.82;70.91
15444;BME280;7822;48.146;11.576;2022-09-17T10:32:27;95144.34;;;11.78;70.84
15444;BME280;7822;48.146;11.576;2022-09-17T10:35:02;95142.56;;;11.79;71.08
15444;BME280;7822;48.146;11.576;2022-09-17T10:37:33;95139.66;;;11.72;71.50
15444;BME280;7822;48.146;11.576;2022-09-17T10:40:10;95137.75;;;11.74;71.97
15444;BME280;7822;48.146;11.576;2022-09-17T10:43:17;95129.66;;;11.68;72.78
15444;BME280;7822;48.146;11.576;2022-09-17T10:45:56;95126.72;;;11.52;73.65
15444;BME280;7822;48.146;11.576;2022-09-17T10:48:27;95123.44;;;11.50;73.64
15444;BME280;7822;48.146;11.576;2022-09-17T10:50:57;95126.53;;;11.44;74.03
15444;BME280;7822;48.146;11.576;2022-09-17T10:53:27;95122.78;;;11.27;74.03
15444;BME280;7822;48.146;11.576;2022-09-17T10:56:04;95129.09;;;11.34;73.85
15444;BME280;7822;48.146;11.576;2022-09-17T10:58:46;95115.91;;;11.47;74.91
15444;BME280;7822;48.146;11.576;2022-09-17T11:01:27;95122.06;;;11.55;73.95
15444;BME280;7822;48.146;11.576;2022-09-17T11:04:18;95129.34;;;11.61;73.22
15444;BME280;7822;48.146;11.576;2022-09-17T11:07:04;95115.97;;;11.66;73.81
15444;BME280;7822;48.146;11.576;2022-09-17T11:09:48;95120.53;;;11.73;74.27
15444;BME280;7822;48.146;11.576;2022-09-17T11:12:27;95125.81;;;11.62;74.48
15444;BME280;7822;48.146;11.576;2022-09-17T11:15:08;95121.44;;;11.63;75.12
15444;BME280;7822;48.146;11.576;2022-09-17T11:17:51;95120.31;;;11.56;74.87
15444;BME280;7822;48.146;11.576;2022-09-17T11:20:40;95115.13;;;11.65;74.00
15444;BME280;7822;48.146;11.576;2022-09-17T11:23:26;95120.41;;;11.75;74.24
15444;BME280;7822;48.146;11.576;2022-09-17T11:26:01;95106.16;;;11.69;74.35
15444;BME280;7822;48.146;11.576;2022-09-17T11:28:45;95106.16;;;11.39;74.46
15444;BME280;7822;48.146;11.576;2022-09-17T11:31:28;95109.03;;;11.36;75.46
15444;BME280;7822;48.146;11.576;2022-09-17T11:34:21;95116.06;;;11.25;76.46
15444;BME280;7822;48.146;11.576;2022-09-17T11:36:56;95117.44;;;11.29;76.84
15444;BME280;7822;48.146;11.576;2022-09-17T11:39:32;95127.22;;;11.46;76.58
15444;BME280;7822;48.146;11.576;2022-09-17T11:42:06;95113.47;;;11.55;75.89
15444;BME280;7822;48.146;11.576;2022-09-17T11:44:40;95137.34;;;11.69;75.43
15444;BME280;7822;48.146;11.576;2022-09-17T11:47:12;95120.44;;;11.84;75.51
15444;BME280;7822;48.146;11.576;2022-09-17T11:49:44;95125.22;;;11.99;75.87
15444;BME280;7822;48.146;11.576;2022-09-17T11:52:20;95114.31;;;12.05;74.30
15444;BME280;7822;48.146;11.576;2022-09-17T11:55:09;95111.59;;;12.16;73.69
15444;BME280;7822;48.146;11.576;2022-09-17T11:57:42;95110.78;;;12.15;73.27
15444;BME280;7822;48.146;11.576;2022-09-17T12:00:57;95106.94;;;12.19;72.62
15444;BME280;7822;48.146;11.576;2022-09-17T12:03:30;95100.66;;;12.31;72.58
15444;BME280;7822;48.146;11.576;2022-09-17T12:06:05;95091.06;;;12.32;72.75
15444;BME280;7822;48.146;11.576;2022-09-17T12:08:39;95095.56;;;12.11;73.28
15444;BME280;7822;48.146;11.576;2022-09-17T12:11:14;95092.16;;;12.20;73.27
15444;BME280;7822;48.146;11.576;2022-09-17T12:13:47;95094.22;;;12.26;73.66
15444;BME280;7822;48.146;11.576;2022-09-17T12:16:21;95093.94;;;12.19;73.35
15444;BME280;7822;48.146;11.576;2022-09-17T12:18:56;95088.88;;;12.18;72.17
15444;BME280;7822;48.146;11.576;2022-09-17T12:21:52;95088.88;;;12.37;71.93
15444;BME280;7822;48.146;11.576;2022-09-17T12:24:28;95083.94;;;12.34;70.10
15444;BME280;7822;48.146;11.576;2022-09-17T12:30:12;95084.38;;;12.48;68.93
15444;BME280;7822;48.146;11.576;2022-09-17T12:33:01;95069.44;;;12.50;68.10
15444;BME280;7822;48.146;11.576;2022-09-17T12:35:49;95073.13;;;12.38;68.16
15444;BME280;7822;48.146;11.576;2022-09-17T12:39:00;95078.47;;;12.46;68.43
15444;BME280;7822;48.146;11.576;2022-09-17T12:41:38;95081.75;;;12.39;66.25
15444;BME280;7822;48.146;11.576;2022-09-17T12:44:21;95085.47;;;12.46;66.70
15444;BME280;7822;48.146;11.576;2022-09-17T12:47:16;95085.19;;;12.49;67.51
15444;BME280;7822;48.146;11.576;2022-09-17T12:50:06;95086.00;;;12.59;65.64
15444;BME280;7822;48.146;11.576;2022-09-17T12:52:50;95085.72;;;12.52;66.17
15444;BME280;7822;48.146;11.576;2022-09-17T12:55:31;95092.44;;;12.55;66.26
15444;BME280;7822;48.146;11.576;2022-09-17T12:58:09;95090.53;;;12.57;66.11
15444;BME280;7822;48.146;11.576;2022-09-17T13:00:45;95077.09;;;12.52;66.26
15444;BME280;7822;48.146;11.576;2022-09-17T13:03:21;95079.28;;;12.47;66.62
15444;BME280;7822;48.146;11.576;2022-09-17T13:09:29;95067.25;;;12.36;66.95
15444;BME280;7822;48.146;11.576;2022-09-17T13:12:06;95068.09;;;12.18;67.51
15444;BME280;7822;48.146;11.576;2022-09-17T13:17:37;95073.41;;;12.26;68.73
15444;BME280;7822;48.146;11.576;2022-09-17T13:20:15;95068.75;;;12.39;69.06
15444;BME280;7822;48.146;11.576;2022-09-17T13:22:48;95057.53;;;12.38;68.94
15444;BME280;7822;48.146;11.576;2022-09-17T13:25:19;95051.53;;;12.38;69.12
15444;BME280;7822;48.146;11.576;2022-09-17T13:27:49;95049.03;;;12.36;69.05
15444;BME280;7822;48.146;11.576;2022-09-17T13:30:18;95050.13;;;12.43;69.33
15444;BME280;7822;48.146;11.576;2022-09-17T13:32:51;95039.56;;;12.45;68.50
15444;BME280;7822;48.146;11.576;2022-09-17T13:35:47;95043.00;;;12.45;68.05
15444;BME280;7822;48.146;11.576;2022-09-17T13:38:17;95049.88;;;12.46;67.89
15444;BME280;7822;48.146;11.576;2022-09-17T13:40:50;95063.69;;;12.37;68.35
15444;BME280;7822;48.146;11.576;2022-09-17T13:43:20;95066.41;;;12.36;68.40
15444;BME280;7822;48.146;11.576;2022-09-17T13:46:16;95073.94;;;12.10;69.75
15444;BME280;7822;48.146;11.576;2022-09-17T13:48:54;95088.28;;;11.85;71.13
15444;BME280;7822;48.146;11.576;2022-09-17T13:51:45;95079.09;;;11.72;71.54
15444;BME280;7822;48.146;11.576;2022-09-17T13:54:14;95085.94;;;11.73;71.18